sensor_id;sensor_type;location;lat;lon;timestamp;temperature;humidity
25668;DHT22;18003;-33.830;151.202;2023-05-03T00:02:14;17.70;99.90
25668;DHT22;18003;-33.830;151.202;2023-05-03T00:04:44;17.80;99.90
25668;DHT22;18003;-33.830;151.202;2023-05-03T00:07:15;17.80;99.90
25668;DHT22;18003;-33.830;151.202;2023-05-03T00:09:45;17.80;99.90
25668;DHT22;18003;-33.830;151.202;2023-05-03T00:12:16;17.80;99.90
25668;DHT22;18003;-33.830;151.202;2023-05-03T00:14:46;17.80;99.90
25668;DHT22;18003;-33.830;151.202;2023-05-03T00:17:16;17.90;99.90
25668;DHT22;18003;-33.830;151.202;2023-05-03T00:19:46;17.90;99.90
25668;DHT22;18003;-33.830;151.202;2023-05-03T00:22:16;17.90;99.90
25668;DHT22;18003;-33.830;151.202;2023-05-03T00:24:45;18.00;99.90
25668;DHT22;18003;-33.830;151.202;2023-05-03T00:27:16;18.00;99.90
25668;DHT22;18003;-33.830;151.202;2023-05-03T00:29:46;18.00;99.90
25668;DHT22;18003;-33.830;151.202;2023-05-03T00:32:17;17.90;99.90
25668;DHT22;18003;-33.830;151.202;2023-05-03T00:34:56;18.00;99.90
25668;DHT22;18003;-33.830;151.202;2023-05-03T00:37:18;18.00;99.90
25668;DHT22;18003;-33.830;151.202;2023-05-03T00:39:48;18.10;99.90
25668;DHT22;18003;-33.830;151.202;2023-05-03T00:42:19;18.10;99.90
25668;DHT22;18003;-33.830;151.202;2023-05-03T00:44:49;18.10;99.90
25668;DHT22;18003;-33.830;151.202;2023-05-03T00:47:19;18.20;99.90
25668;DHT22;18003;-33.830;151.202;2023-05-03T00:49:49;18.20;99.90
25668;DHT22;18003;-33.830;151.202;2023-05-03T00:52:19;18.20;99.90
25668;DHT22;18003;-33.830;151.202;2023-05-03T00:54:50;18.20;99.90
25668;DHT22;18003;-33.830;151.202;2023-05-03T00:57:20;18.20;99.90
25668;DHT22;18003;-33.830;151.202;2023-05-03T00:59:51;18.10;99.90
25668;DHT22;18003;-33.830;151.202;2023-05-03T01:02:21;18.20;99.90
25668;DHT22;18003;-33.830;151.202;2023-05-03T01:04:52;18.20;99.90
25668;DHT22;18003;-33.830;151.202;2023-05-03T01:07:33;18.10;99.90
25668;DHT22;18003;-33.830;151.202;2023-05-03T01:17:56;18.10;99.90
25668;DHT22;18003;-33.830;151.202;2023-05-03T01:20:25;18.10;99.90
25668;DHT22;18003;-33.830;151.202;2023-05-03T01:23:04;18.20;99.90
25668;DHT22;18003;-33.830;151.202;2023-05-03T01:25:32;18.20;99.90
25668;DHT22;18003;-33.830;151.202;2023-05-03T01:28:02;18.20;99.90
25668;DHT22;18003;-33.830;151.202;2023-05-03T01:30:33;18.20;99.90
25668;DHT22;18003;-33.830;151.202;2023-05-03T01:33:13;18.20;99.90
25668;DHT22;18003;-33.830;151.202;2023-05-03T01:36:04;18.20;99.90
25668;DHT22;18003;-33.830;151.202;2023-05-03T01:38:34;18.30;99.90
25668;DHT22;18003;-33.830;151.202;2023-05-03T01:41:06;18.30;99.90
25668;DHT22;18003;-33.830;151.202;2023-05-03T01:43:35;18.30;99.90
25668;DHT22;18003;-33.830;151.202;2023-05-03T01:46:06;18.30;99.90
25668;DHT22;18003;-33.830;151.202;2023-05-03T01:48:39;18.30;99.90
25668;DHT22;18003;-33.830;151.202;2023-05-03T01:51:09;18.30;99.90
25668;DHT22;18003;-33.830;151.202;2023-05-03T01:53:39;18.30;99.90
25668;DHT22;18003;-33.830;151.202;2023-05-03T01:56:09;18.40;99.90
25668;DHT22;18003;-33.830;151.202;2023-05-03T01:58:38;18.30;99.90
25668;DHT22;18003;-33.830;151.202;2023-05-03T02:01:08;18.30;99.90
25668;DHT22;18003;-33.830;151.202;2023-05-03T02:03:38;18.30;99.90
25668;DHT22;18003;-33.830;151.202;2023-05-03T02:06:08;18.40;99.90
25668;DHT22;18003;-33.830;151.202;2023-05-03T02:08:38;18.40;99.90
25668;DHT22;18003;-33.830;151.202;2023-05-03T02:11:08;18.40;99.90
25668;DHT22;18003;-33.830;151.202;2023-05-03T02:13:38;18.50;99.90
25668;DHT22;18003;-33.830;151.202;2023-05-03T02:16:08;18.50;99.90
25668;DHT22;18003;-33.830;151.202;2023-05-03T02:18:38;18.50;99.90
25668;DHT22;18003;-33.830;151.202;2023-05-03T02:21:09;18.40;99.90
25668;DHT22;18003;-33.830;151.202;2023-05-03T02:23:40;18.40;99.90
25668;DHT22;18003;-33.830;151.202;2023-05-03T02:26:09;18.40;99.90
25668;DHT22;18003;-33.830;151.202;2023-05-03T02:28:39;18.50;99.90
25668;DHT22;18003;-33.830;151.202;2023-05-03T02:31:09;18.50;99.90
25668;DHT22;18003;-33.830;151.202;2023-05-03T02:33:40;18.50;99.90
25668;DHT22;18003;-33.830;151.202;2023-05-03T02:36:10;18.50;99.90
25668;DHT22;18003;-33.830;151.202;2023-05-03T02:38:40;18.50;99.90
25668;DHT22;18003;-33.830;151.202;2023-05-03T02:41:09;18.50;99.90
25668;DHT22;18003;-33.830;151.202;2023-05-03T02:43:39;18.50;99.90
25668;DHT22;18003;-33.830;151.202;2023-05-03T02:46:09;18.50;99.90
25668;DHT22;18003;-33.830;151.202;2023-05-03T02:48:40;18.50;99.90
25668;DHT22;18003;-33.830;151.202;2023-05-03T02:51:10;18.60;99.90
25668;DHT22;18003;-33.830;151.202;2023-05-03T02:53:40;18.60;99.90
25668;DHT22;18003;-33.830;151.202;2023-05-03T02:56:10;18.60;99.90
25668;DHT22;18003;-33.830;151.202;2023-05-03T02:58:42;18.60;99.90
25668;DHT22;18003;-33.830;151.202;2023-05-03T03:01:11;18.70;99.90
25668;DHT22;18003;-33.830;151.202;2023-05-03T03:03:42;18.70;99.90
25668;DHT22;18003;-33.830;151.202;2023-05-03T03:06:12;18.80;99.90
25668;DHT22;18003;-33.830;151.202;2023-05-03T03:08:42;18.70;99.70
25668;DHT22;18003;-33.830;151.202;2023-05-03T03:11:12;18.80;99.30
25668;DHT22;18003;-33.830;151.202;2023-05-03T03:13:42;18.70;99.70
25668;DHT22;18003;-33.830;151.202;2023-05-03T03:16:12;18.70;99.00
25668;DHT22;18003;-33.830;151.202;2023-05-03T03:18:41;18.70;99.00
25668;DHT22;18003;-33.830;151.202;2023-05-03T03:21:11;18.70;98.80
25668;DHT22;18003;-33.830;151.202;2023-05-03T03:23:41;18.80;98.10
25668;DHT22;18003;-33.830;151.202;2023-05-03T03:26:11;18.70;98.20
25668;DHT22;18003;-33.830;151.202;2023-05-03T03:28:41;18.70;97.50
25668;DHT22;18003;-33.830;151.202;2023-05-03T03:31:11;18.70;97.70
25668;DHT22;18003;-33.830;151.202;2023-05-03T03:33:41;18.70;97.50
25668;DHT22;18003;-33.830;151.202;2023-05-03T03:36:10;18.70;97.20
25668;DHT22;18003;-33.830;151.202;2023-05-03T03:38:40;18.70;97.30
25668;DHT22;18003;-33.830;151.202;2023-05-03T03:41:10;18.70;96.50
25668;DHT22;18003;-33.830;151.202;2023-05-03T03:43:40;18.70;95.90
25668;DHT22;18003;-33.830;151.202;2023-05-03T03:46:10;18.70;96.60
25668;DHT22;18003;-33.830;151.202;2023-05-03T03:48:40;18.70;95.90
25668;DHT22;18003;-33.830;151.202;2023-05-03T03:51:10;18.70;96.70
25668;DHT22;18003;-33.830;151.202;2023-05-03T03:53:40;18.80;96.20
25668;DHT22;18003;-33.830;151.202;2023-05-03T03:56:10;18.80;95.80
25668;DHT22;18003;-33.830;151.202;2023-05-03T03:58:40;18.80;95.40
25668;DHT22;18003;-33.830;151.202;2023-05-03T04:01:10;18.80;95.00
25668;DHT22;18003;-33.830;151.202;2023-05-03T04:03:39;18.80;94.90
25668;DHT22;18003;-33.830;151.202;2023-05-03T04:06:09;18.80;94.50
25668;DHT22;18003;-33.830;151.202;2023-05-03T04:08:39;18.80;94.40
25668;DHT22;18003;-33.830;151.202;2023-05-03T04:11:12;18.80;94.00
25668;DHT22;18003;-33.830;151.202;2023-05-03T04:13:42;18.80;94.30
25668;DHT22;18003;-33.830;151.202;2023-05-03T04:16:13;18.80;94.50
25668;DHT22;18003;-33.830;151.202;2023-05-03T04:18:43;18.80;94.30
25668;DHT22;18003;-33.830;151.202;2023-05-03T04:21:13;18.80;93.90
25668;DHT22;18003;-33.830;151.202;2023-05-03T04:23:44;18.80;93.60
25668;DHT22;18003;-33.830;151.202;2023-05-03T04:26:14;18.80;93.30
25668;DHT22;18003;-33.830;151.202;2023-05-03T04:28:44;18.80;92.70
25668;DHT22;18003;-33.830;151.202;2023-05-03T04:31:14;18.80;92.20
25668;DHT22;18003;-33.830;151.202;2023-05-03T04:33:45;18.80;92.50
25668;DHT22;18003;-33.830;151.202;2023-05-03T04:36:14;18.80;93.50
25668;DHT22;18003;-33.830;151.202;2023-05-03T04:38:44;18.80;92.60
25668;DHT22;18003;-33.830;151.202;2023-05-03T04:41:14;18.80;92.70
25668;DHT22;18003;-33.830;151.202;2023-05-03T04:43:44;18.80;92.50
25668;DHT22;18003;-33.830;151.202;2023-05-03T04:46:14;18.80;92.40
25668;DHT22;18003;-33.830;151.202;2023-05-03T04:48:45;18.80;93.00
25668;DHT22;18003;-33.830;151.202;2023-05-03T04:51:15;18.80;92.70
25668;DHT22;18003;-33.830;151.202;2023-05-03T04:53:45;18.80;92.90
25668;DHT22;18003;-33.830;151.202;2023-05-03T04:56:15;18.80;92.80
25668;DHT22;18003;-33.830;151.202;2023-05-03T04:58:46;18.80;92.90
25668;DHT22;18003;-33.830;151.202;2023-05-03T05:01:16;18.80;93.30
25668;DHT22;18003;-33.830;151.202;2023-05-03T05:03:47;18.80;93.70
25668;DHT22;18003;-33.830;151.202;2023-05-03T05:06:17;18.80;93.40
25668;DHT22;18003;-33.830;151.202;2023-05-03T05:08:49;18.80;93.60
25668;DHT22;18003;-33.830;151.202;2023-05-03T05:11:18;18.80;93.60
25668;DHT22;18003;-33.830;151.202;2023-05-03T05:13:49;18.80;93.20
25668;DHT22;18003;-33.830;151.202;2023-05-03T05:16:19;18.80;93.30
25668;DHT22;18003;-33.830;151.202;2023-05-03T05:18:49;18.80;93.40
25668;DHT22;18003;-33.830;151.202;2023-05-03T05:21:18;18.80;93.30
25668;DHT22;18003;-33.830;151.202;2023-05-03T05:23:48;18.80;93.60
25668;DHT22;18003;-33.830;151.202;2023-05-03T05:26:18;18.80;94.10
25668;DHT22;18003;-33.830;151.202;2023-05-03T05:28:48;18.80;93.70
25668;DHT22;18003;-33.830;151.202;2023-05-03T05:31:18;18.80;93.40
25668;DHT22;18003;-33.830;151.202;2023-05-03T05:33:48;18.80;93.70
25668;DHT22;18003;-33.830;151.202;2023-05-03T05:36:19;18.80;94.20
25668;DHT22;18003;-33.830;151.202;2023-05-03T05:38:49;18.70;94.20
25668;DHT22;18003;-33.830;151.202;2023-05-03T05:41:19;18.80;94.40
25668;DHT22;18003;-33.830;151.202;2023-05-03T05:43:49;18.80;94.80
25668;DHT22;18003;-33.830;151.202;2023-05-03T05:46:19;18.80;95.20
25668;DHT22;18003;-33.830;151.202;2023-05-03T05:48:48;18.80;94.80
25668;DHT22;18003;-33.830;151.202;2023-05-03T05:51:21;18.80;94.90
25668;DHT22;18003;-33.830;151.202;2023-05-03T05:53:52;18.80;94.70
25668;DHT22;18003;-33.830;151.202;2023-05-03T05:56:23;18.80;94.50
25668;DHT22;18003;-33.830;151.202;2023-05-03T05:58:54;18.80;94.60
25668;DHT22;18003;-33.830;151.202;2023-05-03T06:01:24;18.80;95.10
25668;DHT22;18003;-33.830;151.202;2023-05-03T06:03:55;18.80;95.00
25668;DHT22;18003;-33.830;151.202;2023-05-03T06:06:25;18.80;95.00
25668;DHT22;18003;-33.830;151.202;2023-05-03T06:08:55;18.80;95.10
25668;DHT22;18003;-33.830;151.202;2023-05-03T06:11:25;18.80;95.00
25668;DHT22;18003;-33.830;151.202;2023-05-03T06:13:55;18.80;95.20
25668;DHT22;18003;-33.830;151.202;2023-05-03T06:16:25;18.80;95.20
25668;DHT22;18003;-33.830;151.202;2023-05-03T06:18:55;18.80;95.20
25668;DHT22;18003;-33.830;151.202;2023-05-03T06:21:25;18.80;95.10
25668;DHT22;18003;-33.830;151.202;2023-05-03T06:23:55;18.80;95.20
25668;DHT22;18003;-33.830;151.202;2023-05-03T06:26:25;18.80;95.20
25668;DHT22;18003;-33.830;151.202;2023-05-03T06:28:56;18.80;95.20
25668;DHT22;18003;-33.830;151.202;2023-05-03T06:31:27;18.80;95.70
25668;DHT22;18003;-33.830;151.202;2023-05-03T06:33:56;18.80;95.10
25668;DHT22;18003;-33.830;151.202;2023-05-03T06:36:26;18.80;95.30
25668;DHT22;18003;-33.830;151.202;2023-05-03T06:38:57;18.70;95.40
25668;DHT22;18003;-33.830;151.202;2023-05-03T06:41:28;18.80;95.50
25668;DHT22;18003;-33.830;151.202;2023-05-03T06:43:59;18.80;95.40
25668;DHT22;18003;-33.830;151.202;2023-05-03T06:46:29;18.70;95.20
25668;DHT22;18003;-33.830;151.202;2023-05-03T06:48:59;18.70;95.20
25668;DHT22;18003;-33.830;151.202;2023-05-03T06:51:29;18.70;95.40
25668;DHT22;18003;-33.830;151.202;2023-05-03T06:54:02;18.70;95.80
25668;DHT22;18003;-33.830;151.202;2023-05-03T06:56:32;18.70;95.80
25668;DHT22;18003;-33.830;151.202;2023-05-03T06:59:02;18.70;95.50
25668;DHT22;18003;-33.830;151.202;2023-05-03T07:01:33;18.70;95.80
25668;DHT22;18003;-33.830;151.202;2023-05-03T07:04:02;18.70;96.10
25668;DHT22;18003;-33.830;151.202;2023-05-03T07:06:32;18.70;95.70
25668;DHT22;18003;-33.830;151.202;2023-05-03T07:09:02;18.70;96.20
25668;DHT22;18003;-33.830;151.202;2023-05-03T07:11:32;18.70;96.30
25668;DHT22;18003;-33.830;151.202;2023-05-03T07:14:03;18.70;96.00
25668;DHT22;18003;-33.830;151.202;2023-05-03T07:16:37;18.70;96.00
25668;DHT22;18003;-33.830;151.202;2023-05-03T07:19:03;18.70;96.10
25668;DHT22;18003;-33.830;151.202;2023-05-03T07:21:33;18.60;95.80
25668;DHT22;18003;-33.830;151.202;2023-05-03T07:24:03;18.60;96.00
25668;DHT22;18003;-33.830;151.202;2023-05-03T07:26:34;18.70;96.00
25668;DHT22;18003;-33.830;151.202;2023-05-03T07:29:04;18.60;96.30
25668;DHT22;18003;-33.830;151.202;2023-05-03T07:31:34;18.60;96.40
25668;DHT22;18003;-33.830;151.202;2023-05-03T07:34:04;18.60;96.20
25668;DHT22;18003;-33.830;151.202;2023-05-03T07:36:34;18.60;96.20
25668;DHT22;18003;-33.830;151.202;2023-05-03T07:39:04;18.70;96.20
25668;DHT22;18003;-33.830;151.202;2023-05-03T07:41:34;18.60;96.40
25668;DHT22;18003;-33.830;151.202;2023-05-03T07:44:04;18.60;96.10
25668;DHT22;18003;-33.830;151.202;2023-05-03T07:46:34;18.60;96.40
25668;DHT22;18003;-33.830;151.202;2023-05-03T07:49:04;18.60;96.70
25668;DHT22;18003;-33.830;151.202;2023-05-03T07:51:37;18.60;97.00
25668;DHT22;18003;-33.830;151.202;2023-05-03T07:54:26;18.60;97.00
25668;DHT22;18003;-33.830;151.202;2023-05-03T07:56:56;18.60;96.60
25668;DHT22;18003;-33.830;151.202;2023-05-03T07:59:26;18.70;96.90
25668;DHT22;18003;-33.830;151.202;2023-05-03T08:01:57;18.60;96.80
25668;DHT22;18003;-33.830;151.202;2023-05-03T08:04:26;18.70;96.60
25668;DHT22;18003;-33.830;151.202;2023-05-03T08:06:59;18.60;96.80
25668;DHT22;18003;-33.830;151.202;2023-05-03T08:09:27;18.60;97.10
25668;DHT22;18003;-33.830;151.202;2023-05-03T08:11:57;18.60;96.90
25668;DHT22;18003;-33.830;151.202;2023-05-03T08:14:27;18.60;97.10
25668;DHT22;18003;-33.830;151.202;2023-05-03T08:16:57;18.60;97.20
25668;DHT22;18003;-33.830;151.202;2023-05-03T08:19:27;18.60;97.20
25668;DHT22;18003;-33.830;151.202;2023-05-03T08:21:58;18.60;97.50
25668;DHT22;18003;-33.830;151.202;2023-05-03T08:24:29;18.60;97.10
25668;DHT22;18003;-33.830;151.202;2023-05-03T08:26:59;18.60;97.00
25668;DHT22;18003;-33.830;151.202;2023-05-03T08:29:29;18.60;97.30
25668;DHT22;18003;-33.830;151.202;2023-05-03T08:31:59;18.60;97.20
25668;DHT22;18003;-33.830;151.202;2023-05-03T08:34:29;18.60;97.00
25668;DHT22;18003;-33.830;151.202;2023-05-03T08:36:59;18.60;97.00
25668;DHT22;18003;-33.830;151.202;2023-05-03T08:39:30;18.60;97.20
25668;DHT22;18003;-33.830;151.202;2023-05-03T08:42:00;18.60;97.40
25668;DHT22;18003;-33.830;151.202;2023-05-03T08:44:32;18.60;97.30
25668;DHT22;18003;-33.830;151.202;2023-05-03T08:47:03;18.60;97.50
25668;DHT22;18003;-33.830;151.202;2023-05-03T08:49:34;18.60;97.50
25668;DHT22;18003;-33.830;151.202;2023-05-03T08:52:06;18.60;97.50
25668;DHT22;18003;-33.830;151.202;2023-05-03T08:54:37;18.60;97.70
25668;DHT22;18003;-33.830;151.202;2023-05-03T08:57:14;18.60;97.80
25668;DHT22;18003;-33.830;151.202;2023-05-03T08:59:51;18.60;97.80
25668;DHT22;18003;-33.830;151.202;2023-05-03T09:02:22;18.60;98.00
25668;DHT22;18003;-33.830;151.202;2023-05-03T09:04:52;18.60;98.00
25668;DHT22;18003;-33.830;151.202;2023-05-03T09:07:23;18.60;98.10
25668;DHT22;18003;-33.830;151.202;2023-05-03T09:09:53;18.60;98.10
25668;DHT22;18003;-33.830;151.202;2023-05-03T09:12:34;18.50;98.30
25668;DHT22;18003;-33.830;151.202;2023-05-03T09:15:05;18.60;98.40
25668;DHT22;18003;-33.830;151.202;2023-05-03T09:17:35;18.50;98.30
25668;DHT22;18003;-33.830;151.202;2023-05-03T09:20:06;18.60;98.50
25668;DHT22;18003;-33.830;151.202;2023-05-03T09:22:36;18.50;98.40
25668;DHT22;18003;-33.830;151.202;2023-05-03T09:25:08;18.50;98.40
25668;DHT22;18003;-33.830;151.202;2023-05-03T09:27:39;18.60;98.60
25668;DHT22;18003;-33.830;151.202;2023-05-03T09:30:16;18.60;98.40
25668;DHT22;18003;-33.830;151.202;2023-05-03T09:32:50;18.60;98.10
25668;DHT22;18003;-33.830;151.202;2023-05-03T09:35:20;18.60;98.00
25668;DHT22;18003;-33.830;151.202;2023-05-03T09:37:50;18.60;97.80
25668;DHT22;18003;-33.830;151.202;2023-05-03T09:40:20;18.60;97.90
25668;DHT22;18003;-33.830;151.202;2023-05-03T09:43:11;18.50;97.90
25668;DHT22;18003;-33.830;151.202;2023-05-03T09:45:42;18.60;97.90
25668;DHT22;18003;-33.830;151.202;2023-05-03T09:48:12;18.50;97.90
25668;DHT22;18003;-33.830;151.202;2023-05-03T09:50:43;18.60;98.10
25668;DHT22;18003;-33.830;151.202;2023-05-03T09:53:14;18.50;98.10
25668;DHT22;18003;-33.830;151.202;2023-05-03T09:55:47;18.50;98.70
25668;DHT22;18003;-33.830;151.202;2023-05-03T09:58:18;18.50;99.00
25668;DHT22;18003;-33.830;151.202;2023-05-03T10:00:49;18.50;99.00
25668;DHT22;18003;-33.830;151.202;2023-05-03T10:06:24;18.50;99.20
25668;DHT22;18003;-33.830;151.202;2023-05-03T10:09:11;18.50;99.40
25668;DHT22;18003;-33.830;151.202;2023-05-03T10:11:39;18.40;99.30
25668;DHT22;18003;-33.830;151.202;2023-05-03T10:14:10;18.40;99.10
25668;DHT22;18003;-33.830;151.202;2023-05-03T10:16:41;18.40;99.40
25668;DHT22;18003;-33.830;151.202;2023-05-03T10:22:07;18.40;99.20
25668;DHT22;18003;-33.830;151.202;2023-05-03T10:25:06;18.40;98.80
25668;DHT22;18003;-33.830;151.202;2023-05-03T10:27:10;18.30;98.70
25668;DHT22;18003;-33.830;151.202;2023-05-03T10:32:30;18.30;98.40
25668;DHT22;18003;-33.830;151.202;2023-05-03T10:35:13;18.30;98.30
25668;DHT22;18003;-33.830;151.202;2023-05-03T10:37:44;18.30;98.40
25668;DHT22;18003;-33.830;151.202;2023-05-03T10:40:16;18.30;98.30
25668;DHT22;18003;-33.830;151.202;2023-05-03T10:42:57;18.30;98.30
25668;DHT22;18003;-33.830;151.202;2023-05-03T10:45:25;18.30;98.60
25668;DHT22;18003;-33.830;151.202;2023-05-03T10:50:44;18.30;98.30
25668;DHT22;18003;-33.830;151.202;2023-05-03T10:56:12;18.20;98.30
25668;DHT22;18003;-33.830;151.202;2023-05-03T10:58:45;18.30;98.20
25668;DHT22;18003;-33.830;151.202;2023-05-03T11:01:20;18.20;98.10
25668;DHT22;18003;-33.830;151.202;2023-05-03T11:04:08;18.20;98.10
25668;DHT22;18003;-33.830;151.202;2023-05-03T11:06:39;18.20;98.10
25668;DHT22;18003;-33.830;151.202;2023-05-03T11:09:10;18.20;97.90
25668;DHT22;18003;-33.830;151.202;2023-05-03T11:11:41;18.20;98.00
25668;DHT22;18003;-33.830;151.202;2023-05-03T11:14:11;18.20;98.10
25668;DHT22;18003;-33.830;151.202;2023-05-03T11:16:41;18.20;97.70
25668;DHT22;18003;-33.830;151.202;2023-05-03T11:19:13;18.20;97.80
25668;DHT22;18003;-33.830;151.202;2023-05-03T11:21:43;18.20;98.00
25668;DHT22;18003;-33.830;151.202;2023-05-03T11:24:13;18.10;98.10
25668;DHT22;18003;-33.830;151.202;2023-05-03T11:26:43;18.20;97.90
25668;DHT22;18003;-33.830;151.202;2023-05-03T11:29:13;18.10;97.60
25668;DHT22;18003;-33.830;151.202;2023-05-03T11:31:45;18.10;97.80
25668;DHT22;18003;-33.830;151.202;2023-05-03T11:34:14;18.10;97.80
25668;DHT22;18003;-33.830;151.202;2023-05-03T11:36:44;18.10;97.50
25668;DHT22;18003;-33.830;151.202;2023-05-03T11:39:14;18.10;98.10
25668;DHT22;18003;-33.830;151.202;2023-05-03T11:41:44;18.20;97.50
25668;DHT22;18003;-33.830;151.202;2023-05-03T11:44:15;18.10;97.20
25668;DHT22;18003;-33.830;151.202;2023-05-03T11:46:45;18.10;97.20
25668;DHT22;18003;-33.830;151.202;2023-05-03T11:49:19;18.10;97.30
25668;DHT22;18003;-33.830;151.202;2023-05-03T11:51:49;18.10;96.80
25668;DHT22;18003;-33.830;151.202;2023-05-03T11:54:19;18.00;96.50
25668;DHT22;18003;-33.830;151.202;2023-05-03T11:56:50;18.00;96.80
25668;DHT22;18003;-33.830;151.202;2023-05-03T11:59:19;18.10;96.90
25668;DHT22;18003;-33.830;151.202;2023-05-03T12:01:52;18.10;96.70
25668;DHT22;18003;-33.830;151.202;2023-05-03T12:04:22;18.10;96.80
25668;DHT22;18003;-33.830;151.202;2023-05-03T12:06:52;18.10;96.50
25668;DHT22;18003;-33.830;151.202;2023-05-03T12:09:23;18.10;96.40
25668;DHT22;18003;-33.830;151.202;2023-05-03T12:11:54;18.00;96.40
25668;DHT22;18003;-33.830;151.202;2023-05-03T12:14:24;18.00;96.80
25668;DHT22;18003;-33.830;151.202;2023-05-03T12:16:54;18.00;95.90
25668;DHT22;18003;-33.830;151.202;2023-05-03T12:19:28;18.00;96.20
25668;DHT22;18003;-33.830;151.202;2023-05-03T12:21:58;18.00;96.30
25668;DHT22;18003;-33.830;151.202;2023-05-03T12:24:28;18.00;96.20
25668;DHT22;18003;-33.830;151.202;2023-05-03T12:26:58;18.00;96.60
25668;DHT22;18003;-33.830;151.202;2023-05-03T12:29:28;18.00;96.10
25668;DHT22;18003;-33.830;151.202;2023-05-03T12:32:01;18.00;95.80
25668;DHT22;18003;-33.830;151.202;2023-05-03T12:34:31;18.00;96.20
25668;DHT22;18003;-33.830;151.202;2023-05-03T12:37:01;18.00;95.70
25668;DHT22;18003;-33.830;151.202;2023-05-03T12:39:31;18.00;96.10
25668;DHT22;18003;-33.830;151.202;2023-05-03T12:42:01;18.00;96.00
25668;DHT22;18003;-33.830;151.202;2023-05-03T12:44:31;18.00;95.90
25668;DHT22;18003;-33.830;151.202;2023-05-03T12:47:01;18.00;95.70
25668;DHT22;18003;-33.830;151.202;2023-05-03T12:49:32;17.90;95.20
25668;DHT22;18003;-33.830;151.202;2023-05-03T12:52:02;18.00;95.50
25668;DHT22;18003;-33.830;151.202;2023-05-03T12:54:35;17.90;95.60
25668;DHT22;18003;-33.830;151.202;2023-05-03T12:57:06;17.90;95.50
25668;DHT22;18003;-33.830;151.202;2023-05-03T12:59:37;17.90;95.50
25668;DHT22;18003;-33.830;151.202;2023-05-03T13:02:12;18.00;95.70
25668;DHT22;18003;-33.830;151.202;2023-05-03T13:04:39;17.90;95.90
25668;DHT22;18003;-33.830;151.202;2023-05-03T13:07:09;17.90;95.50
25668;DHT22;18003;-33.830;151.202;2023-05-03T13:09:40;17.90;95.70
25668;DHT22;18003;-33.830;151.202;2023-05-03T13:12:09;17.90;96.00
25668;DHT22;18003;-33.830;151.202;2023-05-03T13:14:40;17.90;95.70
25668;DHT22;18003;-33.830;151.202;2023-05-03T13:17:15;17.90;95.30
25668;DHT22;18003;-33.830;151.202;2023-05-03T13:19:42;17.90;95.70
25668;DHT22;18003;-33.830;151.202;2023-05-03T13:22:12;17.90;95.30
25668;DHT22;18003;-33.830;151.202;2023-05-03T13:24:45;17.90;95.10
25668;DHT22;18003;-33.830;151.202;2023-05-03T13:27:16;17.90;95.00
25668;DHT22;18003;-33.830;151.202;2023-05-03T13:29:45;17.90;95.20
25668;DHT22;18003;-33.830;151.202;2023-05-03T13:32:15;17.90;94.80
25668;DHT22;18003;-33.830;151.202;2023-05-03T13:34:45;17.90;94.60
25668;DHT22;18003;-33.830;151.202;2023-05-03T13:37:15;17.80;95.00
25668;DHT22;18003;-33.830;151.202;2023-05-03T13:39:46;17.90;94.80
25668;DHT22;18003;-33.830;151.202;2023-05-03T13:42:16;17.80;94.80
25668;DHT22;18003;-33.830;151.202;2023-05-03T13:44:45;17.80;94.80
25668;DHT22;18003;-33.830;151.202;2023-05-03T13:47:15;17.90;95.40
25668;DHT22;18003;-33.830;151.202;2023-05-03T13:49:45;17.80;94.60
25668;DHT22;18003;-33.830;151.202;2023-05-03T13:52:15;17.80;94.40
25668;DHT22;18003;-33.830;151.202;2023-05-03T13:54:45;17.80;94.50
25668;DHT22;18003;-33.830;151.202;2023-05-03T13:57:15;17.80;94.40
25668;DHT22;18003;-33.830;151.202;2023-05-03T13:59:44;17.80;94.50
25668;DHT22;18003;-33.830;151.202;2023-05-03T14:02:14;17.80;94.30
25668;DHT22;18003;-33.830;151.202;2023-05-03T14:04:44;17.80;94.50
25668;DHT22;18003;-33.830;151.202;2023-05-03T14:07:14;17.80;94.80
25668;DHT22;18003;-33.830;151.202;2023-05-03T14:09:44;17.80;94.50
25668;DHT22;18003;-33.830;151.202;2023-05-03T14:12:15;17.80;94.50
25668;DHT22;18003;-33.830;151.202;2023-05-03T14:14:45;17.80;94.30
25668;DHT22;18003;-33.830;151.202;2023-05-03T14:17:16;17.80;94.40
25668;DHT22;18003;-33.830;151.202;2023-05-03T14:19:46;17.80;94.40
25668;DHT22;18003;-33.830;151.202;2023-05-03T14:22:16;17.80;94.10
25668;DHT22;18003;-33.830;151.202;2023-05-03T14:24:46;17.70;94.10
25668;DHT22;18003;-33.830;151.202;2023-05-03T14:27:17;17.80;94.20
25668;DHT22;18003;-33.830;151.202;2023-05-03T14:29:49;17.80;94.10
25668;DHT22;18003;-33.830;151.202;2023-05-03T14:32:20;17.70;94.40
25668;DHT22;18003;-33.830;151.202;2023-05-03T14:34:51;17.70;93.80
25668;DHT22;18003;-33.830;151.202;2023-05-03T14:37:21;17.80;94.40
25668;DHT22;18003;-33.830;151.202;2023-05-03T14:39:51;17.80;94.00
25668;DHT22;18003;-33.830;151.202;2023-05-03T14:42:21;17.80;95.00
25668;DHT22;18003;-33.830;151.202;2023-05-03T14:44:51;17.80;94.70
25668;DHT22;18003;-33.830;151.202;2023-05-03T14:47:21;17.70;94.20
25668;DHT22;18003;-33.830;151.202;2023-05-03T14:49:54;17.80;94.70
25668;DHT22;18003;-33.830;151.202;2023-05-03T14:52:24;17.70;94.30
25668;DHT22;18003;-33.830;151.202;2023-05-03T14:54:54;17.70;94.10
25668;DHT22;18003;-33.830;151.202;2023-05-03T14:57:25;17.70;94.40
25668;DHT22;18003;-33.830;151.202;2023-05-03T14:59:55;17.70;94.20
25668;DHT22;18003;-33.830;151.202;2023-05-03T15:02:25;17.70;95.00
25668;DHT22;18003;-33.830;151.202;2023-05-03T15:04:55;17.70;94.50
25668;DHT22;18003;-33.830;151.202;2023-05-03T15:07:26;17.70;94.60
25668;DHT22;18003;-33.830;151.202;2023-05-03T15:09:56;17.70;94.60
25668;DHT22;18003;-33.830;151.202;2023-05-03T15:12:27;17.70;94.80
25668;DHT22;18003;-33.830;151.202;2023-05-03T15:14:57;17.80;95.00
25668;DHT22;18003;-33.830;151.202;2023-05-03T15:17:27;17.70;94.50
25668;DHT22;18003;-33.830;151.202;2023-05-03T15:19:58;17.70;95.20
25668;DHT22;18003;-33.830;151.202;2023-05-03T15:22:28;17.80;95.50
25668;DHT22;18003;-33.830;151.202;2023-05-03T15:24:59;17.70;94.90
25668;DHT22;18003;-33.830;151.202;2023-05-03T15:27:31;17.70;95.20
25668;DHT22;18003;-33.830;151.202;2023-05-03T15:30:01;17.70;95.00
25668;DHT22;18003;-33.830;151.202;2023-05-03T15:32:31;17.70;94.90